sensor_id;sensor_type;location;lat;lon;timestamp;pressure;altitude;pressure_sealevel;temperature;humidity
64644;BME280;51056;50.330;7.914;2023-03-03T00:02:25;101167.50;;;0.19;70.43
64644;BME280;51056;50.330;7.914;2023-03-03T00:05:30;101167.50;;;0.16;70.23
64644;BME280;51056;50.330;7.914;2023-03-03T00:08:33;101166.59;;;0.05;69.93
64644;BME280;51056;50.330;7.914;2023-03-03T00:11:36;101165.75;;;0.09;69.96
64644;BME280;51056;50.330;7.914;2023-03-03T00:14:40;101173.47;;;0.05;70.78
64644;BME280;51056;50.330;7.914;2023-03-03T00:17:43;101173.47;;;0.09;70.92
64644;BME280;51056;50.330;7.914;2023-03-03T00:20:48;101179.47;;;0.11;70.42
64644;BME280;51056;50.330;7.914;2023-03-03T00:23:52;101174.34;;;0.04;70.70
64644;BME280;51056;50.330;7.914;2023-03-03T00:26:56;101180.31;;;0.03;70.72
64644;BME280;51056;50.330;7.914;2023-03-03T00:30:02;101182.03;;;0.02;70.33
64644;BME280;51056;50.330;7.914;2023-03-03T00:33:17;101179.47;;;-0.03;70.50
64644;BME280;51056;50.330;7.914;2023-03-03T00:36:30;101181.19;;;-0.06;71.12
64644;BME280;51056;50.330;7.914;2023-03-03T00:39:35;101183.72;;;-0.11;71.36
64644;BME280;51056;50.330;7.914;2023-03-03T00:42:39;101177.72;;;-0.16;71.51
64644;BME280;51056;50.330;7.914;2023-03-03T00:45:44;101182.00;;;-0.10;70.77
64644;BME280;51056;50.330;7.914;2023-03-03T00:48:48;101182.03;;;-0.04;70.90
64644;BME280;51056;50.330;7.914;2023-03-03T00:51:52;101187.16;;;-0.07;70.93
64644;BME280;51056;50.330;7.914;2023-03-03T00:54:56;101191.44;;;-0.09;71.22
64644;BME280;51056;50.330;7.914;2023-03-03T00:57:59;101184.56;;;-0.13;71.44
64644;BME280;51056;50.330;7.914;2023-03-03T01:01:07;101190.56;;;-0.10;71.12
64644;BME280;51056;50.330;7.914;2023-03-03T01:04:18;101184.59;;;-0.12;71.11
64644;BME280;51056;50.330;7.914;2023-03-03T01:07:21;101182.88;;;-0.08;71.17
64644;BME280;51056;50.330;7.914;2023-03-03T01:10:25;101177.72;;;-0.11;71.37
64644;BME280;51056;50.330;7.914;2023-03-03T01:13:30;101184.56;;;-0.19;71.25
64644;BME280;51056;50.330;7.914;2023-03-03T01:16:34;101183.66;;;-0.29;71.60
64644;BME280;51056;50.330;7.914;2023-03-03T01:19:38;101178.56;;;-0.25;71.97
64644;BME280;51056;50.330;7.914;2023-03-03T01:22:41;101181.13;;;-0.28;71.63
64644;BME280;51056;50.330;7.914;2023-03-03T01:25:46;101184.50;;;-0.47;72.50
64644;BME280;51056;50.330;7.914;2023-03-03T01:28:50;101175.09;;;-0.37;72.17
64644;BME280;51056;50.330;7.914;2023-03-03T01:31:53;101184.50;;;-0.41;72.37
64644;BME280;51056;50.330;7.914;2023-03-03T01:34:55;101180.19;;;-0.45;72.33
64644;BME280;51056;50.330;7.914;2023-03-03T01:37:59;101180.22;;;-0.43;72.51
64644;BME280;51056;50.330;7.914;2023-03-03T01:41:02;101175.06;;;-0.42;72.87
64644;BME280;51056;50.330;7.914;2023-03-03T01:44:05;101171.66;;;-0.47;72.33
64644;BME280;51056;50.330;7.914;2023-03-03T01:47:10;101175.94;;;-0.43;71.92
64644;BME280;51056;50.330;7.914;2023-03-03T01:50:16;101168.22;;;-0.51;72.36
64644;BME280;51056;50.330;7.914;2023-03-03T01:53:23;101173.34;;;-0.54;72.79
64644;BME280;51056;50.330;7.914;2023-03-03T01:56:30;101167.34;;;-0.54;73.03
64644;BME280;51056;50.330;7.914;2023-03-03T01:59:33;101170.78;;;-0.48;72.82
64644;BME280;51056;50.330;7.914;2023-03-03T02:02:37;101171.59;;;-0.56;72.71
64644;BME280;51056;50.330;7.914;2023-03-03T02:05:41;101175.06;;;-0.54;73.01
64644;BME280;51056;50.330;7.914;2023-03-03T02:11:48;101176.72;;;-0.58;73.16
64644;BME280;51056;50.330;7.914;2023-03-03T02:14:52;101170.72;;;-0.64;72.37
64644;BME280;51056;50.330;7.914;2023-03-03T02:17:56;101172.41;;;-0.65;72.94
64644;BME280;51056;50.330;7.914;2023-03-03T02:21:10;101166.41;;;-0.68;72.96
64644;BME280;51056;50.330;7.914;2023-03-03T02:24:20;101170.69;;;-0.71;73.69
64644;BME280;51056;50.330;7.914;2023-03-03T02:27:27;101167.28;;;-0.69;73.71
64644;BME280;51056;50.330;7.914;2023-03-03T02:30:35;101179.28;;;-0.65;73.79
64644;BME280;51056;50.330;7.914;2023-03-03T02:33:39;101183.53;;;-0.71;73.42
64644;BME280;51056;50.330;7.914;2023-03-03T02:36:43;101187.78;;;-0.76;73.70
64644;BME280;51056;50.330;7.914;2023-03-03T02:39:46;101192.94;;;-0.73;73.75
64644;BME280;51056;50.330;7.914;2023-03-03T02:42:49;101194.63;;;-0.78;73.85
64644;BME280;51056;50.330;7.914;2023-03-03T02:45:54;101191.19;;;-0.86;73.78
64644;BME280;51056;50.330;7.914;2023-03-03T02:48:57;101191.19;;;-0.83;73.69
64644;BME280;51056;50.330;7.914;2023-03-03T02:52:01;101183.50;;;-0.83;74.42
64644;BME280;51056;50.330;7.914;2023-03-03T02:55:05;101181.78;;;-0.82;74.37
64644;BME280;51056;50.330;7.914;2023-03-03T02:58:09;101182.59;;;-0.85;74.15
64644;BME280;51056;50.330;7.914;2023-03-03T03:01:12;101185.16;;;-0.86;73.97
64644;BME280;51056;50.330;7.914;2023-03-03T03:04:16;101192.03;;;-0.85;74.04
64644;BME280;51056;50.330;7.914;2023-03-03T03:07:22;101190.28;;;-0.89;74.38
64644;BME280;51056;50.330;7.914;2023-03-03T03:10:25;101185.16;;;-0.91;74.49
64644;BME280;51056;50.330;7.914;2023-03-03T03:13:30;101189.41;;;-0.90;74.42
64644;BME280;51056;50.330;7.914;2023-03-03T03:16:34;101190.28;;;-0.86;73.61
64644;BME280;51056;50.330;7.914;2023-03-03T03:19:36;101189.41;;;-0.93;74.08
64644;BME280;51056;50.330;7.914;2023-03-03T03:22:40;101186.81;;;-0.98;74.50
64644;BME280;51056;50.330;7.914;2023-03-03T03:25:45;101193.69;;;-0.94;74.65
64644;BME280;51056;50.330;7.914;2023-03-03T03:28:54;101200.56;;;-0.92;74.30
64644;BME280;51056;50.330;7.914;2023-03-03T03:31:58;101204.81;;;-0.95;74.43
64644;BME280;51056;50.330;7.914;2023-03-03T03:35:02;101203.03;;;-1.03;74.84
64644;BME280;51056;50.330;7.914;2023-03-03T03:38:05;101208.19;;;-1.00;74.61
64644;BME280;51056;50.330;7.914;2023-03-03T03:41:09;101215.03;;;-1.04;74.21
64644;BME280;51056;50.330;7.914;2023-03-03T03:44:13;101209.03;;;-1.03;74.45
64644;BME280;51056;50.330;7.914;2023-03-03T03:47:16;101215.88;;;-1.05;74.83
64644;BME280;51056;50.330;7.914;2023-03-03T03:50:19;101219.25;;;-1.09;74.26
64644;BME280;51056;50.330;7.914;2023-03-03T03:53:22;101215.00;;;-1.07;74.05
64644;BME280;51056;50.330;7.914;2023-03-03T03:56:26;101207.31;;;-1.08;74.34
64644;BME280;51056;50.330;7.914;2023-03-03T03:59:32;101214.97;;;-1.14;75.03
64644;BME280;51056;50.330;7.914;2023-03-03T04:02:35;101215.81;;;-1.12;74.90
64644;BME280;51056;50.330;7.914;2023-03-03T04:05:38;101209.81;;;-1.14;74.96
64644;BME280;51056;50.330;7.914;2023-03-03T04:08:42;101210.63;;;-1.20;75.24
64644;BME280;51056;50.330;7.914;2023-03-03T04:11:46;101211.47;;;-1.23;74.91
64644;BME280;51056;50.330;7.914;2023-03-03T04:14:50;101213.16;;;-1.26;75.15
64644;BME280;51056;50.330;7.914;2023-03-03T04:17:54;101221.72;;;-1.23;75.28
64644;BME280;51056;50.330;7.914;2023-03-03T04:20:57;101217.44;;;-1.27;75.64
64644;BME280;51056;50.330;7.914;2023-03-03T04:24:03;101214.81;;;-1.33;75.56
64644;BME280;51056;50.330;7.914;2023-03-03T04:27:06;101228.44;;;-1.38;75.46
64644;BME280;51056;50.330;7.914;2023-03-03T04:30:13;101225.88;;;-1.40;75.85
64644;BME280;51056;50.330;7.914;2023-03-03T04:33:16;101225.03;;;-1.39;75.64
64644;BME280;51056;50.330;7.914;2023-03-03T04:36:20;101224.97;;;-1.47;76.30
64644;BME280;51056;50.330;7.914;2023-03-03T04:39:25;101217.28;;;-1.44;76.71
64644;BME280;51056;50.330;7.914;2023-03-03T04:42:30;101219.00;;;-1.44;76.13
64644;BME280;51056;50.330;7.914;2023-03-03T04:45:33;101216.47;;;-1.43;75.59
64644;BME280;51056;50.330;7.914;2023-03-03T04:48:37;101207.00;;;-1.50;75.87
64644;BME280;51056;50.330;7.914;2023-03-03T04:51:40;101206.91;;;-1.57;76.42
64644;BME280;51056;50.330;7.914;2023-03-03T04:54:44;101204.34;;;-1.57;76.47
64644;BME280;51056;50.330;7.914;2023-03-03T04:57:47;101222.31;;;-1.59;76.71
64644;BME280;51056;50.330;7.914;2023-03-03T05:00:54;101227.50;;;-1.51;76.69
64644;BME280;51056;50.330;7.914;2023-03-03T05:03:58;101235.25;;;-1.44;76.53
64644;BME280;51056;50.330;7.914;2023-03-03T05:07:01;101230.88;;;-1.55;76.02
64644;BME280;51056;50.330;7.914;2023-03-03T05:10:05;101237.75;;;-1.53;76.09
64644;BME280;51056;50.330;7.914;2023-03-03T05:13:08;101237.66;;;-1.62;75.95
64644;BME280;51056;50.330;7.914;2023-03-03T05:16:12;101234.19;;;-1.69;76.68
64644;BME280;51056;50.330;7.914;2023-03-03T05:19:15;101236.72;;;-1.72;77.26
64644;BME280;51056;50.330;7.914;2023-03-03T05:22:18;101242.81;;;-1.62;76.63
64644;BME280;51056;50.330;7.914;2023-03-03T05:25:21;101242.81;;;-1.57;76.12
64644;BME280;51056;50.330;7.914;2023-03-03T05:28:24;101248.81;;;-1.58;75.73
64644;BME280;51056;50.330;7.914;2023-03-03T05:31:27;101241.06;;;-1.63;75.87
64644;BME280;51056;50.330;7.914;2023-03-03T05:34:30;101243.63;;;-1.65;76.23
64644;BME280;51056;50.330;7.914;2023-03-03T05:37:33;101238.44;;;-1.69;76.41
64644;BME280;51056;50.330;7.914;2023-03-03T05:40:37;101226.50;;;-1.69;76.33
64644;BME280;51056;50.330;7.914;2023-03-03T05:43:41;101234.13;;;-1.73;76.32
64644;BME280;51056;50.330;7.914;2023-03-03T05:46:44;101229.84;;;-1.73;76.23
64644;BME280;51056;50.330;7.914;2023-03-03T05:49:47;101232.41;;;-1.73;76.04
64644;BME280;51056;50.330;7.914;2023-03-03T05:52:53;101250.38;;;-1.73;76.08
64644;BME280;51056;50.330;7.914;2023-03-03T05:55:57;101241.84;;;-1.72;75.58
64644;BME280;51056;50.330;7.914;2023-03-03T05:59:08;101249.38;;;-1.85;76.16
64644;BME280;51056;50.330;7.914;2023-03-03T06:02:11;101260.53;;;-1.85;76.51
64644;BME280;51056;50.330;7.914;2023-03-03T06:05:14;101262.25;;;-1.84;76.15
64644;BME280;51056;50.330;7.914;2023-03-03T06:08:18;101265.69;;;-1.80;75.38
64644;BME280;51056;50.330;7.914;2023-03-03T06:11:23;101271.59;;;-1.86;76.08
64644;BME280;51056;50.330;7.914;2023-03-03T06:14:27;101280.19;;;-1.82;76.72
64644;BME280;51056;50.330;7.914;2023-03-03T06:17:30;101279.31;;;-1.83;76.78
64644;BME280;51056;50.330;7.914;2023-03-03T06:20:33;101287.91;;;-1.79;76.30
64644;BME280;51056;50.330;7.914;2023-03-03T06:23:37;101300.75;;;-1.76;76.13
64644;BME280;51056;50.330;7.914;2023-03-03T06:26:40;101302.44;;;-1.81;75.88
64644;BME280;51056;50.330;7.914;2023-03-03T06:29:44;101302.31;;;-1.89;76.39
64644;BME280;51056;50.330;7.914;2023-03-03T06:32:47;101300.56;;;-1.95;76.55
64644;BME280;51056;50.330;7.914;2023-03-03T06:35:51;101303.97;;;-1.96;76.96
64644;BME280;51056;50.330;7.914;2023-03-03T06:38:55;101310.75;;;-2.01;77.24
64644;BME280;51056;50.330;7.914;2023-03-03T06:41:58;101311.72;;;-1.91;76.69
64644;BME280;51056;50.330;7.914;2023-03-03T06:45:01;101325.47;;;-1.84;76.51
64644;BME280;51056;50.330;7.914;2023-03-03T06:48:05;101330.63;;;-1.80;76.84
64644;BME280;51056;50.330;7.914;2023-03-03T06:51:15;101321.28;;;-1.78;76.45
64644;BME280;51056;50.330;7.914;2023-03-03T06:54:21;101324.69;;;-1.76;77.07
64644;BME280;51056;50.330;7.914;2023-03-03T06:57:30;101334.97;;;-1.73;76.60
64644;BME280;51056;50.330;7.914;2023-03-03T07:00:35;101339.25;;;-1.75;76.48
64644;BME280;51056;50.330;7.914;2023-03-03T07:03:38;101363.22;;;-1.71;76.89
64644;BME280;51056;50.330;7.914;2023-03-03T07:06:41;101363.28;;;-1.64;77.01
64644;BME280;51056;50.330;7.914;2023-03-03T07:09:44;101371.94;;;-1.55;76.99
64644;BME280;51056;50.330;7.914;2023-03-03T07:12:55;101383.03;;;-1.58;77.07
64644;BME280;51056;50.330;7.914;2023-03-03T07:16:08;101377.22;;;-1.43;76.71
64644;BME280;51056;50.330;7.914;2023-03-03T07:19:18;101378.13;;;-1.36;77.00
64644;BME280;51056;50.330;7.914;2023-03-03T07:22:24;101386.00;;;-1.21;77.02
64644;BME280;51056;50.330;7.914;2023-03-03T07:25:30;101396.25;;;-1.20;76.50
64644;BME280;51056;50.330;7.914;2023-03-03T07:28:33;101391.97;;;-1.19;76.96
64644;BME280;51056;50.330;7.914;2023-03-03T07:31:40;101391.19;;;-1.13;76.46
64644;BME280;51056;50.330;7.914;2023-03-03T07:34:45;101393.78;;;-1.10;76.73
64644;BME280;51056;50.330;7.914;2023-03-03T07:37:50;101397.28;;;-0.99;76.65
64644;BME280;51056;50.330;7.914;2023-03-03T07:40:55;101394.00;;;-0.86;76.00
64644;BME280;51056;50.330;7.914;2023-03-03T07:44:04;101403.38;;;-0.91;76.11
64644;BME280;51056;50.330;7.914;2023-03-03T07:50:16;101417.28;;;-0.64;76.59
64644;BME280;51056;50.330;7.914;2023-03-03T07:53:21;101419.91;;;-0.58;76.10
64644;BME280;51056;50.330;7.914;2023-03-03T07:56:29;101421.63;;;-0.57;76.52
64644;BME280;51056;50.330;7.914;2023-03-03T07:59:32;101417.38;;;-0.52;76.49
64644;BME280;51056;50.330;7.914;2023-03-03T08:02:40;101410.56;;;-0.47;76.12
64644;BME280;51056;50.330;7.914;2023-03-03T08:05:46;101411.50;;;-0.37;75.95
64644;BME280;51056;50.330;7.914;2023-03-03T08:08:50;101414.09;;;-0.30;76.06
64644;BME280;51056;50.330;7.914;2023-03-03T08:11:56;101416.75;;;-0.17;76.03
64644;BME280;51056;50.330;7.914;2023-03-03T08:15:16;101418.47;;;-0.13;75.76
64644;BME280;51056;50.330;7.914;2023-03-03T08:18:22;101410.78;;;-0.10;76.37
64644;BME280;51056;50.330;7.914;2023-03-03T08:21:26;101416.00;;;-0.01;75.88
64644;BME280;51056;50.330;7.914;2023-03-03T08:24:30;101414.34;;;0.07;75.89
64644;BME280;51056;50.330;7.914;2023-03-03T08:27:34;101410.97;;;0.20;75.54
64644;BME280;51056;50.330;7.914;2023-03-03T08:30:37;101403.25;;;0.20;76.49
64644;BME280;51056;50.330;7.914;2023-03-03T08:33:40;101401.66;;;0.53;76.65
64644;BME280;51056;50.330;7.914;2023-03-03T08:36:43;101412.81;;;0.58;76.60
64644;BME280;51056;50.330;7.914;2023-03-03T08:39:48;101417.97;;;0.61;76.59
64644;BME280;51056;50.330;7.914;2023-03-03T08:42:52;101416.16;;;0.33;78.89
64644;BME280;51056;50.330;7.914;2023-03-03T08:45:57;101421.38;;;0.57;78.24
64644;BME280;51056;50.330;7.914;2023-03-03T08:49:01;101418.91;;;0.83;77.60
64644;BME280;51056;50.330;7.914;2023-03-03T08:52:04;101417.19;;;0.91;80.41
64644;BME280;51056;50.330;7.914;2023-03-03T08:55:08;101423.22;;;1.20;78.76
64644;BME280;51056;50.330;7.914;2023-03-03T08:58:12;101419.81;;;1.34;78.95
64644;BME280;51056;50.330;7.914;2023-03-03T09:01:15;101421.50;;;1.43;78.59
64644;BME280;51056;50.330;7.914;2023-03-03T09:04:20;101424.06;;;1.46;78.23
64644;BME280;51056;50.330;7.914;2023-03-03T09:07:24;101422.34;;;1.07;78.66
64644;BME280;51056;50.330;7.914;2023-03-03T09:10:28;101422.38;;;1.27;78.84
64644;BME280;51056;50.330;7.914;2023-03-03T09:13:32;101423.25;;;1.50;77.68
64644;BME280;51056;50.330;7.914;2023-03-03T09:16:38;101430.06;;;1.82;76.54
64644;BME280;51056;50.330;7.914;2023-03-03T09:19:41;101431.81;;;1.68;77.25
64644;BME280;51056;50.330;7.914;2023-03-03T09:22:46;101435.16;;;2.03;76.23
64644;BME280;51056;50.330;7.914;2023-03-03T09:25:51;101441.25;;;1.85;77.29
64644;BME280;51056;50.330;7.914;2023-03-03T09:32:36;101446.41;;;1.89;76.52
64644;BME280;51056;50.330;7.914;2023-03-03T09:35:45;101436.91;;;2.04;76.01
64644;BME280;51056;50.330;7.914;2023-03-03T09:38:48;101441.13;;;2.33;75.82
64644;BME280;51056;50.330;7.914;2023-03-03T09:44:59;101429.88;;;2.46;73.94
64644;BME280;51056;50.330;7.914;2023-03-03T09:48:11;101436.81;;;2.33;73.10
64644;BME280;51056;50.330;7.914;2023-03-03T10:07:49;101417.66;;;2.76;72.99
64644;BME280;51056;50.330;7.914;2023-03-03T10:14:12;101427.97;;;2.79;71.67
64644;BME280;51056;50.330;7.914;2023-03-03T10:20:29;101448.69;;;2.70;72.40
64644;BME280;51056;50.330;7.914;2023-03-03T10:23:43;101452.78;;;3.08;72.13
64644;BME280;51056;50.330;7.914;2023-03-03T10:30:07;101459.03;;;2.70;72.55
64644;BME280;51056;50.330;7.914;2023-03-03T10:33:20;101466.66;;;2.90;72.51
64644;BME280;51056;50.330;7.914;2023-03-03T10:36:33;101456.25;;;3.03;72.98
64644;BME280;51056;50.330;7.914;2023-03-03T10:49:45;101455.28;;;3.20;71.50
64644;BME280;51056;50.330;7.914;2023-03-03T10:53:02;101454.41;;;3.25;71.84
64644;BME280;51056;50.330;7.914;2023-03-03T10:56:22;101451.88;;;3.12;71.34
64644;BME280;51056;50.330;7.914;2023-03-03T10:59:42;101458.63;;;3.34;71.81
64644;BME280;51056;50.330;7.914;2023-03-03T11:06:04;101454.03;;;3.67;70.91
64644;BME280;51056;50.330;7.914;2023-03-03T11:15:39;101442.53;;;3.95;69.74
64644;BME280;51056;50.330;7.914;2023-03-03T11:35:15;101423.88;;;4.45;68.05
64644;BME280;51056;50.330;7.914;2023-03-03T11:45:13;101407.75;;;4.87;66.98
64644;BME280;51056;50.330;7.914;2023-03-03T11:48:16;101398.94;;;4.98;66.40
64644;BME280;51056;50.330;7.914;2023-03-03T11:52:12;101392.72;;;5.11;66.82
64644;BME280;51056;50.330;7.914;2023-03-03T11:54:48;101398.81;;;5.08;66.31
64644;BME280;51056;50.330;7.914;2023-03-03T12:04:34;101376.38;;;5.07;65.14
64644;BME280;51056;50.330;7.914;2023-03-03T12:07:45;101375.00;;;5.38;65.22
64644;BME280;51056;50.330;7.914;2023-03-03T12:10:53;101365.19;;;5.53;64.54
64644;BME280;51056;50.330;7.914;2023-03-03T12:20:44;101360.09;;;5.97;63.27
64644;BME280;51056;50.330;7.914;2023-03-03T12:27:18;101347.38;;;6.25;60.87
64644;BME280;51056;50.330;7.914;2023-03-03T12:33:54;101338.34;;;6.43;60.28
64644;BME280;51056;50.330;7.914;2023-03-03T12:43:23;101319.34;;;6.78;58.67
64644;BME280;51056;50.330;7.914;2023-03-03T12:49:40;101304.97;;;6.24;59.91
64644;BME280;51056;50.330;7.914;2023-03-03T12:56:00;101296.47;;;6.57;59.51
64644;BME280;51056;50.330;7.914;2023-03-03T12:59:13;101294.50;;;6.66;58.73
64644;BME280;51056;50.330;7.914;2023-03-03T13:02:25;101293.50;;;6.72;58.16
64644;BME280;51056;50.330;7.914;2023-03-03T13:08:56;101295.69;;;6.89;57.36
64644;BME280;51056;50.330;7.914;2023-03-03T13:21:53;101282.44;;;9.79;48.91
64644;BME280;51056;50.330;7.914;2023-03-03T13:25:13;101281.13;;;11.02;45.67
64644;BME280;51056;50.330;7.914;2023-03-03T13:31:29;101274.38;;;13.57;41.98
64644;BME280;51056;50.330;7.914;2023-03-03T13:38:17;101273.72;;;13.01;40.95
64644;BME280;51056;50.330;7.914;2023-03-03T13:44:37;101278.63;;;11.20;45.88
64644;BME280;51056;50.330;7.914;2023-03-03T13:48:20;101272.44;;;10.37;47.91
64644;BME280;51056;50.330;7.914;2023-03-03T14:01:26;101278.25;;;8.75;57.10
64644;BME280;51056;50.330;7.914;2023-03-03T14:04:37;101265.53;;;9.17;55.74
64644;BME280;51056;50.330;7.914;2023-03-03T14:07:47;101264.78;;;9.39;52.81
64644;BME280;51056;50.330;7.914;2023-03-03T14:20:27;101258.75;;;9.12;52.37
64644;BME280;51056;50.330;7.914;2023-03-03T14:33:31;101256.53;;;9.26;52.33
64644;BME280;51056;50.330;7.914;2023-03-03T14:36:39;101253.69;;;8.82;52.73
64644;BME280;51056;50.330;7.914;2023-03-03T14:39:44;101252.97;;;9.03;52.49
64644;BME280;51056;50.330;7.914;2023-03-03T14:42:59;101249.94;;;8.36;53.73
64644;BME280;51056;50.330;7.914;2023-03-03T14:49:29;101249.81;;;9.19;51.42
64644;BME280;51056;50.330;7.914;2023-03-03T14:52:40;101251.41;;;9.48;51.24
64644;BME280;51056;50.330;7.914;2023-03-03T14:55:45;101248.84;;;9.46;52.19
64644;BME280;51056;50.330;7.914;2023-03-03T14:59:32;101243.53;;;9.95;51.37
64644;BME280;51056;50.330;7.914;2023-03-03T15:05:24;101240.78;;;9.76;49.66
64644;BME280;51056;50.330;7.914;2023-03-03T15:08:33;101238.16;;;9.29;51.45
64644;BME280;51056;50.330;7.914;2023-03-03T15:11:36;101237.47;;;9.94;51.17
64644;BME280;51056;50.330;7.914;2023-03-03T15:14:42;101229.63;;;10.18;48.79
64644;BME280;51056;50.330;7.914;2023-03-03T15:17:57;101226.91;;;11.84;46.21
64644;BME280;51056;50.330;7.914;2023-03-03T15:21:07;101218.72;;;13.33;42.45
64644;BME280;51056;50.330;7.914;2023-03-03T15:27:30;101226.03;;;9.51;49.62
64644;BME280;51056;50.330;7.914;2023-03-03T15:34:03;101225.50;;;8.67;53.63
64644;BME280;51056;50.330;7.914;2023-03-03T15:43:36;101229.34;;;7.71;55.92
64644;BME280;51056;50.330;7.914;2023-03-03T15:46:48;101235.41;;;7.40;56.62
64644;BME280;51056;50.330;7.914;2023-03-03T15:50:06;101229.94;;;7.49;56.37
64644;BME280;51056;50.330;7.914;2023-03-03T15:56:36;101238.53;;;7.21;58.01
64644;BME280;51056;50.330;7.914;2023-03-03T16:05:52;101251.00;;;7.40;59.48
64644;BME280;51056;50.330;7.914;2023-03-03T16:12:10;101253.59;;;6.74;59.12
64644;BME280;51056;50.330;7.914;2023-03-03T16:15:21;101253.63;;;6.73;58.54
64644;BME280;51056;50.330;7.914;2023-03-03T16:18:31;101266.06;;;6.96;58.25
64644;BME280;51056;50.330;7.914;2023-03-03T16:28:26;101272.50;;;6.44;59.02
64644;BME280;51056;50.330;7.914;2023-03-03T16:38:56;101277.88;;;5.97;60.21
64644;BME280;51056;50.330;7.914;2023-03-03T16:45:19;101298.94;;;5.82;60.62
64644;BME280;51056;50.330;7.914;2023-03-03T16:48:21;101301.75;;;5.71;60.66
64644;BME280;51056;50.330;7.914;2023-03-03T16:54:35;101302.59;;;5.72;60.93
64644;BME280;51056;50.330;7.914;2023-03-03T17:04:39;101320.13;;;5.59;61.46
64644;BME280;51056;50.330;7.914;2023-03-03T17:17:31;101330.41;;;5.16;62.92
64644;BME280;51056;50.330;7.914;2023-03-03T17:23:50;101339.84;;;5.21;63.14
64644;BME280;51056;50.330;7.914;2023-03-03T17:42:42;101364.25;;;4.51;65.50
64644;BME280;51056;50.330;7.914;2023-03-03T17:45:52;101375.81;;;4.25;66.58
64644;BME280;51056;50.330;7.914;2023-03-03T17:55:33;101390.66;;;4.09;67.38
64644;BME280;51056;50.330;7.914;2023-03-03T17:58:55;101391.69;;;3.96;67.77
64644;BME280;51056;50.330;7.914;2023-03-03T18:05:30;101412.41;;;3.91;67.71
64644;BME280;51056;50.330;7.914;2023-03-03T18:19:09;101426.50;;;3.64;68.29
64644;BME280;51056;50.330;7.914;2023-03-03T18:21:53;101430.88;;;3.58;69.00
64644;BME280;51056;50.330;7.914;2023-03-03T18:25:03;101435.19;;;3.54;69.36
64644;BME280;51056;50.330;7.914;2023-03-03T18:28:14;101435.22;;;3.49;69.06
64644;BME280;51056;50.330;7.914;2023-03-03T18:31:23;101441.31;;;3.45;69.13
64644;BME280;51056;50.330;7.914;2023-03-03T18:37:46;101450.91;;;3.30;69.84
64644;BME280;51056;50.330;7.914;2023-03-03T18:40:58;101452.72;;;3.15;70.09
64644;BME280;51056;50.330;7.914;2023-03-03T18:44:23;101448.47;;;3.05;70.36
64644;BME280;51056;50.330;7.914;2023-03-03T18:51:08;101458.91;;;2.91;70.97
64644;BME280;51056;50.330;7.914;2023-03-03T18:57:25;101465.00;;;2.76;71.94
64644;BME280;51056;50.330;7.914;2023-03-03T19:00:28;101469.31;;;2.76;71.85
64644;BME280;51056;50.330;7.914;2023-03-03T19:03:36;101472.78;;;2.72;71.73
64644;BME280;51056;50.330;7.914;2023-03-03T19:09:53;101483.16;;;2.66;71.66
64644;BME280;51056;50.330;7.914;2023-03-03T19:12:59;101479.75;;;2.51;71.74
64644;BME280;51056;50.330;7.914;2023-03-03T19:19:10;101479.78;;;2.44;72.46
64644;BME280;51056;50.330;7.914;2023-03-03T19:22:21;101476.38;;;2.31;72.33
64644;BME280;51056;50.330;7.914;2023-03-03T19:25:26;101483.28;;;2.30;72.73
64644;BME280;51056;50.330;7.914;2023-03-03T19:28:35;101492.72;;;2.28;72.74
64644;BME280;51056;50.330;7.914;2023-03-03T19:48:21;101500.53;;;1.96;73.69
64644;BME280;51056;50.330;7.914;2023-03-03T19:58:02;101502.28;;;1.82;74.14
64644;BME280;51056;50.330;7.914;2023-03-03T20:01:17;101497.97;;;1.73;74.09
64644;BME280;51056;50.330;7.914;2023-03-03T20:04:29;101503.97;;;1.72;74.22
64644;BME280;51056;50.330;7.914;2023-03-03T20:14:15;101509.16;;;1.61;74.25
64644;BME280;51056;50.330;7.914;2023-03-03T20:20:35;101514.31;;;1.54;74.42
64644;BME280;51056;50.330;7.914;2023-03-03T20:39:47;101516.00;;;1.29;75.03
64644;BME280;51056;50.330;7.914;2023-03-03T20:52:56;101518.53;;;1.12;76.09
64644;BME280;51056;50.330;7.914;2023-03-03T20:59:29;101528.84;;;1.12;75.79
64644;BME280;51056;50.330;7.914;2023-03-03T21:05:53;101534.84;;;1.12;75.41
64644;BME280;51056;50.330;7.914;2023-03-03T21:08:57;101539.16;;;1.12;75.60
64644;BME280;51056;50.330;7.914;2023-03-03T21:12:11;101534.84;;;1.06;75.55
64644;BME280;51056;50.330;7.914;2023-03-03T21:15:46;101529.66;;;1.00;75.63
64644;BME280;51056;50.330;7.914;2023-03-03T21:19:01;101532.22;;;1.00;75.59
64644;BME280;51056;50.330;7.914;2023-03-03T21:22:09;101536.47;;;0.92;76.13
64644;BME280;51056;50.330;7.914;2023-03-03T21:28:40;101539.03;;;0.83;75.62
64644;BME280;51056;50.330;7.914;2023-03-03T21:32:02;101540.81;;;0.96;75.49
64644;BME280;51056;50.330;7.914;2023-03-03T21:35:14;101540.75;;;0.88;75.26
64644;BME280;51056;50.330;7.914;2023-03-03T21:38:31;101545.88;;;0.82;75.69
64644;BME280;51056;50.330;7.914;2023-03-03T21:45:07;101550.13;;;0.69;75.93
64644;BME280;51056;50.330;7.914;2023-03-03T21:48:11;101555.22;;;0.60;76.15
64644;BME280;51056;50.330;7.914;2023-03-03T21:51:29;101551.78;;;0.60;76.69
64644;BME280;51056;50.330;7.914;2023-03-03T21:54:33;101546.63;;;0.55;76.76
64644;BME280;51056;50.330;7.914;2023-03-03T21:57:36;101547.47;;;0.53;76.78
64644;BME280;51056;50.330;7.914;2023-03-03T22:00:40;101544.03;;;0.52;76.92
64644;BME280;51056;50.330;7.914;2023-03-03T22:03:44;101544.91;;;0.51;76.73
64644;BME280;51056;50.330;7.914;2023-03-03T22:06:48;101555.13;;;0.40;76.49
64644;BME280;51056;50.330;7.914;2023-03-03T22:09:52;101558.63;;;0.53;76.59
64644;BME280;51056;50.330;7.914;2023-03-03T22:12:55;101555.16;;;0.50;76.32
64644;BME280;51056;50.330;7.914;2023-03-03T22:15:58;101553.47;;;0.50;76.92
64644;BME280;51056;50.330;7.914;2023-03-03T22:19:02;101553.44;;;0.47;76.88
64644;BME280;51056;50.330;7.914;2023-03-03T22:22:05;101550.03;;;0.48;76.70
64644;BME280;51056;50.330;7.914;2023-03-03T22:25:10;101552.59;;;0.50;76.51
64644;BME280;51056;50.330;7.914;2023-03-03T22:28:13;101562.88;;;0.45;76.47